Raymond, Canada
Current Conditions -  °F | °C
As of 3:00 AM on Saturday 29 Nov 2014 (Local Time) from CYQL Reporting Station
Light Snow Light Snow  
Wind Chill: -34°   Ceiling: 1100
Heat Index: -22°   Visibility: 1mi
Dew Point: -24°   Wind: 16mph
Humidity: 84%   Direction: 310°NW
Pressure: 29.76"   Gusts: NA
Location:  49.47°N, 112.66°W
Report Text: CYQL 291000Z AUTO 31014KT 1SM -SN VV011 M22/M24 A2976 RMK PRESFR PCPN 1.6MM PAST HR SLP169
Loading
Personal Weather Stations






























Interactive Weather Map New forecast layout! Learn more

10-Day Weather Forecast

Advertisements
Track Severe Weather on mobile